sensor_id;sensor_type;location;lat;lon;timestamp;P1;durP1;ratioP1;P2;durP2;ratioP2
1350;SDS011;669;50.206;9.998;2023-06-14T00:01:03;4.53;;;4.13;;
1350;SDS011;669;50.206;9.998;2023-06-14T00:03:33;4.20;;;3.90;;
1350;SDS011;669;50.206;9.998;2023-06-14T00:06:01;4.60;;;4.20;;
1350;SDS011;669;50.206;9.998;2023-06-14T00:08:29;7.53;;;4.30;;
1350;SDS011;669;50.206;9.998;2023-06-14T00:10:57;5.30;;;4.40;;
1350;SDS011;669;50.206;9.998;2023-06-14T00:13:26;5.17;;;4.67;;
1350;SDS011;669;50.206;9.998;2023-06-14T00:15:54;4.77;;;4.37;;
1350;SDS011;669;50.206;9.998;2023-06-14T00:18:22;6.50;;;4.73;;
1350;SDS011;669;50.206;9.998;2023-06-14T00:20:52;5.13;;;4.50;;
1350;SDS011;669;50.206;9.998;2023-06-14T00:23:20;4.50;;;4.13;;
1350;SDS011;669;50.206;9.998;2023-06-14T00:25:48;4.43;;;4.13;;
1350;SDS011;669;50.206;9.998;2023-06-14T00:28:16;4.70;;;4.30;;
1350;SDS011;669;50.206;9.998;2023-06-14T00:30:44;5.20;;;3.63;;
1350;SDS011;669;50.206;9.998;2023-06-14T00:33:13;5.03;;;4.60;;
1350;SDS011;669;50.206;9.998;2023-06-14T00:35:41;5.20;;;4.47;;
1350;SDS011;669;50.206;9.998;2023-06-14T00:38:10;4.40;;;3.67;;
1350;SDS011;669;50.206;9.998;2023-06-14T00:40:38;4.13;;;3.83;;
1350;SDS011;669;50.206;9.998;2023-06-14T00:43:06;5.20;;;4.70;;
1350;SDS011;669;50.206;9.998;2023-06-14T00:45:34;5.53;;;4.20;;
1350;SDS011;669;50.206;9.998;2023-06-14T00:48:02;4.47;;;4.07;;
1350;SDS011;669;50.206;9.998;2023-06-14T00:50:32;4.87;;;3.97;;
1350;SDS011;669;50.206;9.998;2023-06-14T00:53:00;4.07;;;3.77;;
1350;SDS011;669;50.206;9.998;2023-06-14T00:55:30;3.83;;;3.53;;
1350;SDS011;669;50.206;9.998;2023-06-14T00:57:59;4.13;;;3.77;;
1350;SDS011;669;50.206;9.998;2023-06-14T01:00:27;4.50;;;4.10;;
1350;SDS011;669;50.206;9.998;2023-06-14T01:02:55;5.17;;;4.70;;
1350;SDS011;669;50.206;9.998;2023-06-14T01:05:24;4.03;;;3.73;;
1350;SDS011;669;50.206;9.998;2023-06-14T01:07:56;4.20;;;3.87;;
1350;SDS011;669;50.206;9.998;2023-06-14T01:10:37;4.53;;;4.23;;
1350;SDS011;669;50.206;9.998;2023-06-14T01:13:20;6.23;;;3.97;;
1350;SDS011;669;50.206;9.998;2023-06-14T01:15:51;5.83;;;4.87;;
1350;SDS011;669;50.206;9.998;2023-06-14T01:18:20;4.07;;;3.77;;
1350;SDS011;669;50.206;9.998;2023-06-14T01:20:52;4.90;;;4.43;;
1350;SDS011;669;50.206;9.998;2023-06-14T01:23:23;4.83;;;4.43;;
1350;SDS011;669;50.206;9.998;2023-06-14T01:25:51;4.90;;;4.50;;
1350;SDS011;669;50.206;9.998;2023-06-14T01:28:20;5.80;;;5.30;;
1350;SDS011;669;50.206;9.998;2023-06-14T01:30:49;4.97;;;4.57;;
1350;SDS011;669;50.206;9.998;2023-06-14T01:33:20;9.63;;;5.70;;
1350;SDS011;669;50.206;9.998;2023-06-14T01:35:50;5.47;;;5.00;;
1350;SDS011;669;50.206;9.998;2023-06-14T01:38:19;5.13;;;4.67;;
1350;SDS011;669;50.206;9.998;2023-06-14T01:40:50;4.40;;;4.00;;
1350;SDS011;669;50.206;9.998;2023-06-14T01:43:21;5.70;;;5.10;;
1350;SDS011;669;50.206;9.998;2023-06-14T01:45:50;8.20;;;5.03;;
1350;SDS011;669;50.206;9.998;2023-06-14T01:48:20;5.20;;;4.77;;
1350;SDS011;669;50.206;9.998;2023-06-14T01:50:49;6.00;;;4.70;;
1350;SDS011;669;50.206;9.998;2023-06-14T01:53:19;4.30;;;3.90;;
1350;SDS011;669;50.206;9.998;2023-06-14T01:55:47;4.67;;;4.27;;
1350;SDS011;669;50.206;9.998;2023-06-14T01:58:16;6.00;;;4.93;;
1350;SDS011;669;50.206;9.998;2023-06-14T02:00:44;4.60;;;4.20;;
1350;SDS011;669;50.206;9.998;2023-06-14T02:03:14;4.90;;;4.40;;
1350;SDS011;669;50.206;9.998;2023-06-14T02:05:42;5.00;;;4.50;;
1350;SDS011;669;50.206;9.998;2023-06-14T02:08:10;5.30;;;4.73;;
1350;SDS011;669;50.206;9.998;2023-06-14T02:10:38;4.83;;;4.43;;
1350;SDS011;669;50.206;9.998;2023-06-14T02:13:06;6.43;;;5.23;;
1350;SDS011;669;50.206;9.998;2023-06-14T02:15:35;4.83;;;4.30;;
1350;SDS011;669;50.206;9.998;2023-06-14T02:18:04;5.90;;;5.40;;
1350;SDS011;669;50.206;9.998;2023-06-14T02:20:32;5.93;;;5.43;;
1350;SDS011;669;50.206;9.998;2023-06-14T02:23:00;5.97;;;5.47;;
1350;SDS011;669;50.206;9.998;2023-06-14T02:25:28;6.27;;;5.67;;
1350;SDS011;669;50.206;9.998;2023-06-14T02:27:56;6.20;;;5.70;;
1350;SDS011;669;50.206;9.998;2023-06-14T02:30:24;5.80;;;5.13;;
1350;SDS011;669;50.206;9.998;2023-06-14T02:32:53;6.43;;;5.03;;
1350;SDS011;669;50.206;9.998;2023-06-14T02:35:21;5.20;;;4.80;;
1350;SDS011;669;50.206;9.998;2023-06-14T02:37:52;5.60;;;5.10;;
1350;SDS011;669;50.206;9.998;2023-06-14T02:40:22;7.07;;;5.60;;
1350;SDS011;669;50.206;9.998;2023-06-14T02:42:50;5.40;;;4.97;;
1350;SDS011;669;50.206;9.998;2023-06-14T02:45:18;6.03;;;5.50;;
1350;SDS011;669;50.206;9.998;2023-06-14T02:47:47;7.00;;;5.27;;
1350;SDS011;669;50.206;9.998;2023-06-14T02:50:16;6.17;;;5.67;;
1350;SDS011;669;50.206;9.998;2023-06-14T02:52:44;5.53;;;5.07;;
1350;SDS011;669;50.206;9.998;2023-06-14T02:55:12;4.90;;;4.40;;
1350;SDS011;669;50.206;9.998;2023-06-14T02:57:40;5.83;;;5.23;;
1350;SDS011;669;50.206;9.998;2023-06-14T03:00:09;6.07;;;5.47;;
1350;SDS011;669;50.206;9.998;2023-06-14T03:02:40;6.57;;;5.23;;
1350;SDS011;669;50.206;9.998;2023-06-14T03:05:09;7.53;;;5.57;;
1350;SDS011;669;50.206;9.998;2023-06-14T03:07:39;6.57;;;5.13;;
1350;SDS011;669;50.206;9.998;2023-06-14T03:10:07;5.63;;;5.13;;
1350;SDS011;669;50.206;9.998;2023-06-14T03:12:36;7.27;;;4.70;;
1350;SDS011;669;50.206;9.998;2023-06-14T03:15:04;7.13;;;5.23;;
1350;SDS011;669;50.206;9.998;2023-06-14T03:17:33;5.50;;;5.00;;
1350;SDS011;669;50.206;9.998;2023-06-14T03:20:01;5.23;;;4.73;;
1350;SDS011;669;50.206;9.998;2023-06-14T03:22:31;6.37;;;5.53;;
1350;SDS011;669;50.206;9.998;2023-06-14T03:25:01;5.70;;;5.20;;
1350;SDS011;669;50.206;9.998;2023-06-14T03:27:30;6.47;;;5.77;;
1350;SDS011;669;50.206;9.998;2023-06-14T03:29:58;5.40;;;4.90;;
1350;SDS011;669;50.206;9.998;2023-06-14T03:32:27;5.90;;;5.30;;
1350;SDS011;669;50.206;9.998;2023-06-14T03:34:54;5.90;;;5.23;;
1350;SDS011;669;50.206;9.998;2023-06-14T03:37:22;5.67;;;5.07;;
1350;SDS011;669;50.206;9.998;2023-06-14T03:39:56;5.40;;;4.90;;
1350;SDS011;669;50.206;9.998;2023-06-14T03:42:25;5.30;;;4.80;;
1350;SDS011;669;50.206;9.998;2023-06-14T03:44:53;9.03;;;5.70;;
1350;SDS011;669;50.206;9.998;2023-06-14T03:47:21;5.90;;;5.30;;
1350;SDS011;669;50.206;9.998;2023-06-14T03:49:49;8.70;;;5.50;;
1350;SDS011;669;50.206;9.998;2023-06-14T03:52:17;6.63;;;5.17;;
1350;SDS011;669;50.206;9.998;2023-06-14T03:54:45;5.90;;;4.93;;
1350;SDS011;669;50.206;9.998;2023-06-14T03:57:16;6.53;;;4.90;;
1350;SDS011;669;50.206;9.998;2023-06-14T03:59:46;5.67;;;4.70;;
1350;SDS011;669;50.206;9.998;2023-06-14T04:02:14;6.50;;;5.33;;
1350;SDS011;669;50.206;9.998;2023-06-14T04:04:42;6.17;;;5.63;;
1350;SDS011;669;50.206;9.998;2023-06-14T04:07:11;5.80;;;4.60;;
1350;SDS011;669;50.206;9.998;2023-06-14T04:09:40;5.93;;;5.17;;
1350;SDS011;669;50.206;9.998;2023-06-14T04:12:08;5.30;;;4.80;;
1350;SDS011;669;50.206;9.998;2023-06-14T04:14:37;6.73;;;5.73;;
1350;SDS011;669;50.206;9.998;2023-06-14T04:17:07;5.60;;;5.10;;
1350;SDS011;669;50.206;9.998;2023-06-14T04:19:35;4.80;;;4.40;;
1350;SDS011;669;50.206;9.998;2023-06-14T04:22:04;6.40;;;5.67;;
1350;SDS011;669;50.206;9.998;2023-06-14T04:24:32;5.93;;;5.30;;
1350;SDS011;669;50.206;9.998;2023-06-14T04:27:01;5.53;;;4.80;;
1350;SDS011;669;50.206;9.998;2023-06-14T04:29:29;5.90;;;5.13;;
1350;SDS011;669;50.206;9.998;2023-06-14T04:31:57;7.57;;;5.10;;
1350;SDS011;669;50.206;9.998;2023-06-14T04:34:28;5.63;;;4.87;;
1350;SDS011;669;50.206;9.998;2023-06-14T04:36:58;4.13;;;3.83;;
1350;SDS011;669;50.206;9.998;2023-06-14T04:39:27;4.90;;;4.23;;
1350;SDS011;669;50.206;9.998;2023-06-14T04:41:55;5.30;;;4.80;;
1350;SDS011;669;50.206;9.998;2023-06-14T04:44:26;5.73;;;4.87;;
1350;SDS011;669;50.206;9.998;2023-06-14T04:46:58;4.70;;;4.30;;
1350;SDS011;669;50.206;9.998;2023-06-14T04:49:27;4.60;;;4.20;;
1350;SDS011;669;50.206;9.998;2023-06-14T04:51:57;4.70;;;4.30;;
1350;SDS011;669;50.206;9.998;2023-06-14T04:54:25;5.57;;;4.70;;
1350;SDS011;669;50.206;9.998;2023-06-14T04:56:53;4.93;;;4.40;;
1350;SDS011;669;50.206;9.998;2023-06-14T04:59:21;4.27;;;3.90;;
1350;SDS011;669;50.206;9.998;2023-06-14T05:01:50;4.23;;;3.83;;
1350;SDS011;669;50.206;9.998;2023-06-14T05:04:19;4.60;;;4.10;;
1350;SDS011;669;50.206;9.998;2023-06-14T05:06:50;5.27;;;3.87;;
1350;SDS011;669;50.206;9.998;2023-06-14T05:09:20;4.30;;;3.90;;
1350;SDS011;669;50.206;9.998;2023-06-14T05:11:48;4.90;;;4.10;;
1350;SDS011;669;50.206;9.998;2023-06-14T05:14:16;4.43;;;4.00;;
1350;SDS011;669;50.206;9.998;2023-06-14T05:16:44;3.93;;;3.63;;
1350;SDS011;669;50.206;9.998;2023-06-14T05:19:15;4.73;;;4.27;;
1350;SDS011;669;50.206;9.998;2023-06-14T05:21:44;4.63;;;3.80;;
1350;SDS011;669;50.206;9.998;2023-06-14T05:24:15;4.20;;;3.90;;
1350;SDS011;669;50.206;9.998;2023-06-14T05:26:44;4.03;;;3.63;;
1350;SDS011;669;50.206;9.998;2023-06-14T05:29:12;4.07;;;3.77;;
1350;SDS011;669;50.206;9.998;2023-06-14T05:31:40;4.73;;;3.80;;
1350;SDS011;669;50.206;9.998;2023-06-14T05:34:08;4.40;;;4.00;;
1350;SDS011;669;50.206;9.998;2023-06-14T05:36:36;6.60;;;4.00;;
1350;SDS011;669;50.206;9.998;2023-06-14T05:39:05;4.17;;;3.83;;
1350;SDS011;669;50.206;9.998;2023-06-14T05:41:34;4.07;;;3.70;;
1350;SDS011;669;50.206;9.998;2023-06-14T05:44:02;4.80;;;4.17;;
1350;SDS011;669;50.206;9.998;2023-06-14T05:46:30;4.37;;;3.47;;
1350;SDS011;669;50.206;9.998;2023-06-14T05:48:58;5.80;;;4.10;;
1350;SDS011;669;50.206;9.998;2023-06-14T05:51:26;4.60;;;3.70;;
1350;SDS011;669;50.206;9.998;2023-06-14T05:53:54;5.00;;;4.47;;
1350;SDS011;669;50.206;9.998;2023-06-14T05:56:22;4.17;;;3.20;;
1350;SDS011;669;50.206;9.998;2023-06-14T05:58:51;6.77;;;3.70;;
1350;SDS011;669;50.206;9.998;2023-06-14T06:01:19;4.87;;;4.17;;
1350;SDS011;669;50.206;9.998;2023-06-14T06:03:48;5.77;;;4.13;;
1350;SDS011;669;50.206;9.998;2023-06-14T06:06:16;3.60;;;3.40;;
1350;SDS011;669;50.206;9.998;2023-06-14T06:08:44;4.80;;;3.50;;
1350;SDS011;669;50.206;9.998;2023-06-14T06:11:12;3.80;;;3.50;;
1350;SDS011;669;50.206;9.998;2023-06-14T06:13:39;6.20;;;3.30;;
1350;SDS011;669;50.206;9.998;2023-06-14T06:16:09;3.40;;;3.10;;
1350;SDS011;669;50.206;9.998;2023-06-14T06:18:37;8.10;;;4.00;;
1350;SDS011;669;50.206;9.998;2023-06-14T06:21:05;6.73;;;3.97;;
1350;SDS011;669;50.206;9.998;2023-06-14T06:23:33;4.03;;;3.63;;
1350;SDS011;669;50.206;9.998;2023-06-14T06:26:02;5.93;;;3.53;;
1350;SDS011;669;50.206;9.998;2023-06-14T06:28:30;7.70;;;3.37;;
1350;SDS011;669;50.206;9.998;2023-06-14T06:30:58;4.23;;;3.83;;
1350;SDS011;669;50.206;9.998;2023-06-14T06:33:31;4.10;;;3.53;;
1350;SDS011;669;50.206;9.998;2023-06-14T06:35:59;4.23;;;3.93;;
1350;SDS011;669;50.206;9.998;2023-06-14T06:38:27;4.73;;;3.27;;
1350;SDS011;669;50.206;9.998;2023-06-14T06:40:55;4.20;;;3.80;;
1350;SDS011;669;50.206;9.998;2023-06-14T06:43:23;3.77;;;3.47;;
1350;SDS011;669;50.206;9.998;2023-06-14T06:45:52;6.10;;;3.63;;
1350;SDS011;669;50.206;9.998;2023-06-14T06:48:20;5.67;;;4.27;;
1350;SDS011;669;50.206;9.998;2023-06-14T06:50:49;5.87;;;3.63;;
1350;SDS011;669;50.206;9.998;2023-06-14T06:53:17;4.43;;;4.13;;
1350;SDS011;669;50.206;9.998;2023-06-14T06:56:00;4.13;;;3.73;;
1350;SDS011;669;50.206;9.998;2023-06-14T06:58:28;4.63;;;3.23;;
1350;SDS011;669;50.206;9.998;2023-06-14T07:00:56;4.70;;;4.30;;
1350;SDS011;669;50.206;9.998;2023-06-14T07:03:24;5.10;;;4.30;;
1350;SDS011;669;50.206;9.998;2023-06-14T07:05:53;3.50;;;3.20;;
1350;SDS011;669;50.206;9.998;2023-06-14T07:08:21;3.60;;;3.40;;
1350;SDS011;669;50.206;9.998;2023-06-14T07:10:49;4.13;;;3.60;;
1350;SDS011;669;50.206;9.998;2023-06-14T07:13:17;3.20;;;3.00;;
1350;SDS011;669;50.206;9.998;2023-06-14T07:15:45;4.07;;;3.27;;
1350;SDS011;669;50.206;9.998;2023-06-14T07:18:13;4.77;;;4.37;;
1350;SDS011;669;50.206;9.998;2023-06-14T07:20:42;6.70;;;4.00;;
1350;SDS011;669;50.206;9.998;2023-06-14T07:23:11;5.33;;;4.20;;
1350;SDS011;669;50.206;9.998;2023-06-14T07:25:39;6.90;;;3.70;;
1350;SDS011;669;50.206;9.998;2023-06-14T07:28:07;5.73;;;4.30;;
1350;SDS011;669;50.206;9.998;2023-06-14T07:30:35;3.60;;;3.17;;
1350;SDS011;669;50.206;9.998;2023-06-14T07:33:03;4.40;;;3.80;;
1350;SDS011;669;50.206;9.998;2023-06-14T07:35:32;3.37;;;3.17;;
1350;SDS011;669;50.206;9.998;2023-06-14T07:38:00;5.30;;;3.80;;
1350;SDS011;669;50.206;9.998;2023-06-14T07:40:29;3.40;;;3.20;;
1350;SDS011;669;50.206;9.998;2023-06-14T07:42:57;4.07;;;3.47;;
1350;SDS011;669;50.206;9.998;2023-06-14T07:45:25;4.17;;;2.90;;
1350;SDS011;669;50.206;9.998;2023-06-14T07:47:53;4.07;;;3.67;;
1350;SDS011;669;50.206;9.998;2023-06-14T07:50:21;4.37;;;3.90;;
1350;SDS011;669;50.206;9.998;2023-06-14T07:52:49;3.10;;;2.90;;
1350;SDS011;669;50.206;9.998;2023-06-14T07:55:17;4.53;;;4.13;;
1350;SDS011;669;50.206;9.998;2023-06-14T07:57:46;3.83;;;3.53;;
1350;SDS011;669;50.206;9.998;2023-06-14T08:00:15;3.93;;;3.70;;
1350;SDS011;669;50.206;9.998;2023-06-14T08:02:44;6.43;;;3.57;;
1350;SDS011;669;50.206;9.998;2023-06-14T08:05:13;3.40;;;3.20;;
1350;SDS011;669;50.206;9.998;2023-06-14T08:07:41;3.20;;;2.90;;
1350;SDS011;669;50.206;9.998;2023-06-14T08:10:09;4.20;;;3.80;;
1350;SDS011;669;50.206;9.998;2023-06-14T08:12:37;3.20;;;2.90;;
1350;SDS011;669;50.206;9.998;2023-06-14T08:15:06;5.83;;;3.70;;
1350;SDS011;669;50.206;9.998;2023-06-14T08:17:42;3.37;;;3.17;;
1350;SDS011;669;50.206;9.998;2023-06-14T08:20:10;3.20;;;2.90;;
1350;SDS011;669;50.206;9.998;2023-06-14T08:22:39;9.63;;;4.40;;
1350;SDS011;669;50.206;9.998;2023-06-14T08:25:08;5.93;;;3.40;;
1350;SDS011;669;50.206;9.998;2023-06-14T08:27:37;5.87;;;2.73;;
1350;SDS011;669;50.206;9.998;2023-06-14T08:30:07;4.23;;;3.87;;
1350;SDS011;669;50.206;9.998;2023-06-14T08:32:36;6.23;;;3.87;;
1350;SDS011;669;50.206;9.998;2023-06-14T08:35:04;3.40;;;2.93;;
1350;SDS011;669;50.206;9.998;2023-06-14T08:37:33;3.40;;;2.63;;
1350;SDS011;669;50.206;9.998;2023-06-14T08:40:06;3.60;;;3.30;;
1350;SDS011;669;50.206;9.998;2023-06-14T08:42:45;3.30;;;3.10;;
1350;SDS011;669;50.206;9.998;2023-06-14T08:45:18;7.40;;;3.27;;
1350;SDS011;669;50.206;9.998;2023-06-14T08:47:51;4.83;;;3.63;;
1350;SDS011;669;50.206;9.998;2023-06-14T08:50:24;3.13;;;2.90;;
1350;SDS011;669;50.206;9.998;2023-06-14T08:52:58;3.50;;;3.23;;
1350;SDS011;669;50.206;9.998;2023-06-14T08:55:28;4.37;;;3.13;;
1350;SDS011;669;50.206;9.998;2023-06-14T08:58:01;3.40;;;2.70;;
1350;SDS011;669;50.206;9.998;2023-06-14T09:00:31;3.03;;;2.73;;
1350;SDS011;669;50.206;9.998;2023-06-14T09:03:01;5.13;;;3.20;;
1350;SDS011;669;50.206;9.998;2023-06-14T09:05:29;3.00;;;2.80;;
1350;SDS011;669;50.206;9.998;2023-06-14T09:07:57;4.30;;;3.20;;
1350;SDS011;669;50.206;9.998;2023-06-14T09:10:31;3.60;;;3.03;;
1350;SDS011;669;50.206;9.998;2023-06-14T09:13:00;3.63;;;3.00;;
1350;SDS011;669;50.206;9.998;2023-06-14T09:15:29;2.77;;;2.57;;
1350;SDS011;669;50.206;9.998;2023-06-14T09:17:59;3.40;;;3.10;;
1350;SDS011;669;50.206;9.998;2023-06-14T09:20:29;3.20;;;2.90;;
1350;SDS011;669;50.206;9.998;2023-06-14T09:22:58;2.90;;;2.70;;
1350;SDS011;669;50.206;9.998;2023-06-14T09:25:26;7.20;;;2.70;;
1350;SDS011;669;50.206;9.998;2023-06-14T09:28:06;3.77;;;3.27;;
1350;SDS011;669;50.206;9.998;2023-06-14T09:30:36;3.40;;;3.10;;
1350;SDS011;669;50.206;9.998;2023-06-14T09:33:06;2.60;;;2.40;;
1350;SDS011;669;50.206;9.998;2023-06-14T09:35:34;2.57;;;2.40;;
1350;SDS011;669;50.206;9.998;2023-06-14T09:38:03;3.07;;;2.77;;
1350;SDS011;669;50.206;9.998;2023-06-14T09:40:33;3.20;;;2.90;;
1350;SDS011;669;50.206;9.998;2023-06-14T09:43:04;2.53;;;2.20;;
1350;SDS011;669;50.206;9.998;2023-06-14T09:45:36;2.40;;;2.30;;
1350;SDS011;669;50.206;9.998;2023-06-14T09:48:07;2.93;;;2.73;;
1350;SDS011;669;50.206;9.998;2023-06-14T09:50:36;2.63;;;2.43;;
1350;SDS011;669;50.206;9.998;2023-06-14T09:53:05;3.13;;;2.47;;
1350;SDS011;669;50.206;9.998;2023-06-14T09:55:34;2.50;;;2.40;;
1350;SDS011;669;50.206;9.998;2023-06-14T09:58:05;2.37;;;2.27;;
1350;SDS011;669;50.206;9.998;2023-06-14T10:00:35;2.80;;;2.20;;
1350;SDS011;669;50.206;9.998;2023-06-14T10:03:05;2.23;;;2.13;;
1350;SDS011;669;50.206;9.998;2023-06-14T10:05:38;3.40;;;2.57;;
1350;SDS011;669;50.206;9.998;2023-06-14T10:08:09;2.40;;;2.30;;
1350;SDS011;669;50.206;9.998;2023-06-14T10:10:40;7.23;;;3.13;;
1350;SDS011;669;50.206;9.998;2023-06-14T10:13:08;2.07;;;1.97;;
1350;SDS011;669;50.206;9.998;2023-06-14T10:15:38;3.07;;;2.80;;
1350;SDS011;669;50.206;9.998;2023-06-14T10:18:17;2.73;;;2.53;;
1350;SDS011;669;50.206;9.998;2023-06-14T10:20:51;3.67;;;2.60;;
1350;SDS011;669;50.206;9.998;2023-06-14T10:23:25;2.37;;;2.17;;
1350;SDS011;669;50.206;9.998;2023-06-14T10:25:56;3.70;;;2.20;;
1350;SDS011;669;50.206;9.998;2023-06-14T10:28:26;2.40;;;2.20;;
1350;SDS011;669;50.206;9.998;2023-06-14T10:31:06;2.27;;;2.07;;
1350;SDS011;669;50.206;9.998;2023-06-14T10:33:39;2.10;;;2.00;;
1350;SDS011;669;50.206;9.998;2023-06-14T10:36:27;2.97;;;2.20;;
1350;SDS011;669;50.206;9.998;2023-06-14T10:39:00;2.23;;;2.13;;
1350;SDS011;669;50.206;9.998;2023-06-14T10:41:34;2.70;;;2.50;;
1350;SDS011;669;50.206;9.998;2023-06-14T10:47:07;2.50;;;1.87;;
1350;SDS011;669;50.206;9.998;2023-06-14T10:49:41;2.40;;;2.30;;
1350;SDS011;669;50.206;9.998;2023-06-14T10:52:11;2.37;;;2.20;;
1350;SDS011;669;50.206;9.998;2023-06-14T10:54:56;9.57;;;2.00;;
1350;SDS011;669;50.206;9.998;2023-06-14T10:57:32;5.57;;;2.50;;
1350;SDS011;669;50.206;9.998;2023-06-14T11:00:16;1.90;;;1.80;;
1350;SDS011;669;50.206;9.998;2023-06-14T11:06:00;2.40;;;2.03;;
1350;SDS011;669;50.206;9.998;2023-06-14T11:11:38;2.37;;;2.10;;
1350;SDS011;669;50.206;9.998;2023-06-14T11:14:09;2.10;;;2.00;;
1350;SDS011;669;50.206;9.998;2023-06-14T11:16:38;4.20;;;2.17;;
1350;SDS011;669;50.206;9.998;2023-06-14T11:19:06;2.20;;;2.07;;
1350;SDS011;669;50.206;9.998;2023-06-14T11:21:36;2.27;;;2.17;;
1350;SDS011;669;50.206;9.998;2023-06-14T11:24:09;2.60;;;1.70;;
1350;SDS011;669;50.206;9.998;2023-06-14T11:26:38;3.50;;;2.00;;
1350;SDS011;669;50.206;9.998;2023-06-14T11:29:07;2.37;;;2.27;;
1350;SDS011;669;50.206;9.998;2023-06-14T11:31:35;1.90;;;1.80;;
1350;SDS011;669;50.206;9.998;2023-06-14T11:34:03;3.20;;;2.90;;
1350;SDS011;669;50.206;9.998;2023-06-14T11:36:33;2.00;;;1.90;;
1350;SDS011;669;50.206;9.998;2023-06-14T11:39:03;2.17;;;2.07;;
1350;SDS011;669;50.206;9.998;2023-06-14T11:41:34;2.10;;;1.60;;
1350;SDS011;669;50.206;9.998;2023-06-14T11:44:03;1.97;;;1.87;;
1350;SDS011;669;50.206;9.998;2023-06-14T11:46:32;3.27;;;1.63;;
1350;SDS011;669;50.206;9.998;2023-06-14T11:49:01;2.63;;;2.00;;
1350;SDS011;669;50.206;9.998;2023-06-14T11:51:31;4.50;;;2.40;;
1350;SDS011;669;50.206;9.998;2023-06-14T11:54:02;2.50;;;2.30;;
1350;SDS011;669;50.206;9.998;2023-06-14T11:56:31;2.17;;;2.07;;
1350;SDS011;669;50.206;9.998;2023-06-14T11:58:59;2.50;;;2.30;;
1350;SDS011;669;50.206;9.998;2023-06-14T12:01:30;2.20;;;2.10;;
1350;SDS011;669;50.206;9.998;2023-06-14T12:03:58;2.30;;;2.20;;
1350;SDS011;669;50.206;9.998;2023-06-14T12:06:28;5.70;;;2.60;;
1350;SDS011;669;50.206;9.998;2023-06-14T12:08:59;2.50;;;2.30;;
1350;SDS011;669;50.206;9.998;2023-06-14T12:11:32;2.53;;;2.33;;
1350;SDS011;669;50.206;9.998;2023-06-14T12:14:02;5.53;;;2.33;;
1350;SDS011;669;50.206;9.998;2023-06-14T12:16:32;2.17;;;2.07;;
1350;SDS011;669;50.206;9.998;2023-06-14T12:19:09;3.10;;;2.60;;
1350;SDS011;669;50.206;9.998;2023-06-14T12:21:39;8.60;;;2.80;;
1350;SDS011;669;50.206;9.998;2023-06-14T12:24:09;3.47;;;2.00;;
1350;SDS011;669;50.206;9.998;2023-06-14T12:26:40;4.00;;;2.50;;
1350;SDS011;669;50.206;9.998;2023-06-14T12:29:08;3.53;;;2.87;;
1350;SDS011;669;50.206;9.998;2023-06-14T12:31:39;6.23;;;2.43;;
1350;SDS011;669;50.206;9.998;2023-06-14T12:34:07;2.40;;;2.30;;
1350;SDS011;669;50.206;9.998;2023-06-14T12:36:35;2.07;;;1.97;;
1350;SDS011;669;50.206;9.998;2023-06-14T12:39:07;5.40;;;2.50;;
1350;SDS011;669;50.206;9.998;2023-06-14T12:41:37;2.70;;;2.50;;
1350;SDS011;669;50.206;9.998;2023-06-14T12:44:07;2.37;;;2.10;;
1350;SDS011;669;50.206;9.998;2023-06-14T12:46:36;2.57;;;2.37;;
1350;SDS011;669;50.206;9.998;2023-06-14T12:49:07;2.83;;;2.27;;
1350;SDS011;669;50.206;9.998;2023-06-14T12:51:35;6.00;;;2.40;;
1350;SDS011;669;50.206;9.998;2023-06-14T12:54:04;2.60;;;2.37;;
1350;SDS011;669;50.206;9.998;2023-06-14T12:56:33;3.53;;;2.60;;
1350;SDS011;669;50.206;9.998;2023-06-14T12:59:01;2.73;;;2.20;;
1350;SDS011;669;50.206;9.998;2023-06-14T13:01:29;2.50;;;2.30;;
1350;SDS011;669;50.206;9.998;2023-06-14T13:03:57;2.60;;;2.40;;
1350;SDS011;669;50.206;9.998;2023-06-14T13:06:25;3.03;;;2.60;;
1350;SDS011;669;50.206;9.998;2023-06-14T13:08:53;3.17;;;2.97;;
1350;SDS011;669;50.206;9.998;2023-06-14T13:11:24;2.33;;;2.23;;
1350;SDS011;669;50.206;9.998;2023-06-14T13:13:53;3.20;;;2.33;;
1350;SDS011;669;50.206;9.998;2023-06-14T13:16:21;4.40;;;2.27;;
1350;SDS011;669;50.206;9.998;2023-06-14T13:18:49;2.00;;;1.87;;
1350;SDS011;669;50.206;9.998;2023-06-14T13:21:17;3.17;;;2.70;;
1350;SDS011;669;50.206;9.998;2023-06-14T13:23:45;3.97;;;2.07;;
1350;SDS011;669;50.206;9.998;2023-06-14T13:26:13;2.77;;;2.57;;
1350;SDS011;669;50.206;9.998;2023-06-14T13:28:41;2.90;;;2.70;;
1350;SDS011;669;50.206;9.998;2023-06-14T13:31:10;2.40;;;2.30;;
1350;SDS011;669;50.206;9.998;2023-06-14T13:33:38;2.40;;;2.30;;
1350;SDS011;669;50.206;9.998;2023-06-14T13:36:06;2.60;;;2.40;;
1350;SDS011;669;50.206;9.998;2023-06-14T13:38:34;2.87;;;2.67;;
1350;SDS011;669;50.206;9.998;2023-06-14T13:41:02;3.13;;;2.90;;
1350;SDS011;669;50.206;9.998;2023-06-14T13:43:30;4.10;;;2.27;;
1350;SDS011;669;50.206;9.998;2023-06-14T13:45:58;4.67;;;3.33;;
1350;SDS011;669;50.206;9.998;2023-06-14T13:48:28;10.13;;;3.57;;
1350;SDS011;669;50.206;9.998;2023-06-14T13:50:56;3.60;;;2.67;;
1350;SDS011;669;50.206;9.998;2023-06-14T13:53:24;2.47;;;2.37;;
1350;SDS011;669;50.206;9.998;2023-06-14T13:55:52;4.67;;;2.67;;
1350;SDS011;669;50.206;9.998;2023-06-14T13:58:20;2.90;;;2.53;;
1350;SDS011;669;50.206;9.998;2023-06-14T14:00:48;2.43;;;2.33;;
1350;SDS011;669;50.206;9.998;2023-06-14T14:03:16;2.80;;;2.60;;
1350;SDS011;669;50.206;9.998;2023-06-14T14:05:47;2.70;;;2.50;;
1350;SDS011;669;50.206;9.998;2023-06-14T14:08:15;2.83;;;2.50;;
1350;SDS011;669;50.206;9.998;2023-06-14T14:10:43;2.50;;;2.40;;
1350;SDS011;669;50.206;9.998;2023-06-14T14:13:11;3.73;;;2.73;;
1350;SDS011;669;50.206;9.998;2023-06-14T14:15:39;2.60;;;2.50;;
1350;SDS011;669;50.206;9.998;2023-06-14T14:18:08;5.37;;;2.80;;
1350;SDS011;669;50.206;9.998;2023-06-14T14:20:36;2.70;;;2.50;;
1350;SDS011;669;50.206;9.998;2023-06-14T14:23:05;3.63;;;3.03;;
1350;SDS011;669;50.206;9.998;2023-06-14T14:25:33;3.30;;;3.00;;
1350;SDS011;669;50.206;9.998;2023-06-14T14:28:01;2.40;;;2.20;;
1350;SDS011;669;50.206;9.998;2023-06-14T14:30:30;2.57;;;2.37;;
1350;SDS011;669;50.206;9.998;2023-06-14T14:32:57;3.03;;;2.83;;
1350;SDS011;669;50.206;9.998;2023-06-14T14:35:26;5.77;;;2.40;;
1350;SDS011;669;50.206;9.998;2023-06-14T14:37:57;2.80;;;2.60;;
1350;SDS011;669;50.206;9.998;2023-06-14T14:40:26;3.90;;;2.73;;
1350;SDS011;669;50.206;9.998;2023-06-14T14:42:54;2.60;;;2.40;;
1350;SDS011;669;50.206;9.998;2023-06-14T14:45:22;2.73;;;2.53;;
1350;SDS011;669;50.206;9.998;2023-06-14T14:47:50;2.47;;;2.27;;
1350;SDS011;669;50.206;9.998;2023-06-14T14:50:21;2.87;;;2.67;;
1350;SDS011;669;50.206;9.998;2023-06-14T14:52:49;3.07;;;2.37;;
1350;SDS011;669;50.206;9.998;2023-06-14T14:55:17;2.73;;;2.50;;
1350;SDS011;669;50.206;9.998;2023-06-14T14:57:46;2.67;;;2.50;;
1350;SDS011;669;50.206;9.998;2023-06-14T15:00:14;2.93;;;1.93;;
1350;SDS011;669;50.206;9.998;2023-06-14T15:02:43;2.40;;;2.20;;
1350;SDS011;669;50.206;9.998;2023-06-14T15:05:12;2.87;;;2.63;;
1350;SDS011;669;50.206;9.998;2023-06-14T15:07:40;2.63;;;2.43;;
1350;SDS011;669;50.206;9.998;2023-06-14T15:10:08;4.50;;;2.60;;
1350;SDS011;669;50.206;9.998;2023-06-14T15:12:36;2.57;;;2.37;;
1350;SDS011;669;50.206;9.998;2023-06-14T15:15:06;2.40;;;2.30;;
1350;SDS011;669;50.206;9.998;2023-06-14T15:17:35;3.23;;;2.93;;
1350;SDS011;669;50.206;9.998;2023-06-14T15:20:04;3.83;;;2.67;;
1350;SDS011;669;50.206;9.998;2023-06-14T15:22:33;2.30;;;2.20;;
1350;SDS011;669;50.206;9.998;2023-06-14T15:25:01;2.60;;;2.40;;
1350;SDS011;669;50.206;9.998;2023-06-14T15:27:29;6.20;;;3.17;;
1350;SDS011;669;50.206;9.998;2023-06-14T15:29:57;3.30;;;2.50;;
1350;SDS011;669;50.206;9.998;2023-06-14T15:32:26;2.77;;;2.57;;
1350;SDS011;669;50.206;9.998;2023-06-14T15:34:54;3.90;;;2.77;;
1350;SDS011;669;50.206;9.998;2023-06-14T15:37:22;3.17;;;2.97;;
1350;SDS011;669;50.206;9.998;2023-06-14T15:39:50;2.63;;;2.43;;
1350;SDS011;669;50.206;9.998;2023-06-14T15:42:18;6.30;;;3.07;;
1350;SDS011;669;50.206;9.998;2023-06-14T15:44:46;2.53;;;2.30;;
1350;SDS011;669;50.206;9.998;2023-06-14T15:47:14;4.03;;;2.70;;
1350;SDS011;669;50.206;9.998;2023-06-14T15:49:43;2.87;;;2.70;;
1350;SDS011;669;50.206;9.998;2023-06-14T15:52:11;5.63;;;2.40;;